createdAt,value
2017-10-10T00:00:17.621Z,95.50
2017-10-10T00:02:44.422Z,95.50
2017-10-10T00:05:11.287Z,95.60
2017-10-10T00:07:38.097Z,95.50
2017-10-10T00:10:04.888Z,95.50
2017-10-10T00:12:32.425Z,95.50
2017-10-10T00:14:59.255Z,95.50
2017-10-10T00:17:26.098Z,95.40
2017-10-10T00:19:52.881Z,95.50
2017-10-10T00:22:19.764Z,95.50
2017-10-10T00:24:46.620Z,95.70
2017-10-10T00:27:13.420Z,95.50
2017-10-10T00:29:40.235Z,95.40
2017-10-10T00:32:07.099Z,95.50
2017-10-10T00:34:33.979Z,95.40
2017-10-10T00:37:00.817Z,95.30
2017-10-10T00:39:27.656Z,95.50
2017-10-10T00:41:54.485Z,95.40
2017-10-10T00:44:21.325Z,95.40
2017-10-10T00:46:48.320Z,95.30
2017-10-10T00:49:15.147Z,95.40
2017-10-10T00:51:41.958Z,95.40
2017-10-10T00:54:09.547Z,95.30
2017-10-10T00:56:37.649Z,95.30
2017-10-10T00:59:04.619Z,95.20
2017-10-10T01:01:31.515Z,95.40
2017-10-10T01:03:58.364Z,95.40
2017-10-10T01:06:25.261Z,95.40
2017-10-10T01:08:52.837Z,95.40
2017-10-10T01:11:20.385Z,95.30
2017-10-10T01:13:47.199Z,95.40
2017-10-10T01:16:14.119Z,95.40
2017-10-10T01:18:40.985Z,95.30
2017-10-10T01:21:07.889Z,95.30
2017-10-10T01:23:34.811Z,95.30
2017-10-10T01:26:01.688Z,95.40
2017-10-10T01:28:29.319Z,95.30
2017-10-10T01:30:56.161Z,95.30
2017-10-10T01:33:23.060Z,95.20
2017-10-10T01:35:49.965Z,95.30
2017-10-10T01:38:17.598Z,95.20
2017-10-10T01:40:44.503Z,95.20
2017-10-10T01:43:12.137Z,95.30
2017-10-10T01:45:39.023Z,95.30
2017-10-10T01:48:05.869Z,95.20
2017-10-10T01:50:32.743Z,95.20
2017-10-10T01:52:59.567Z,95.20
2017-10-10T01:55:26.385Z,95.10
2017-10-10T01:57:53.267Z,95.20
2017-10-10T02:00:20.162Z,95.10
2017-10-10T02:02:46.983Z,95.10
2017-10-10T02:05:13.826Z,95.10
2017-10-10T02:07:41.398Z,95.10
2017-10-10T02:10:08.254Z,95.00
2017-10-10T02:12:35.077Z,95.10
2017-10-10T02:15:01.909Z,95.00
2017-10-10T02:17:28.719Z,95.10
2017-10-10T02:19:55.627Z,95.00
2017-10-10T02:22:23.207Z,95.00
2017-10-10T02:24:50.036Z,94.90
2017-10-10T02:27:16.847Z,95.00
2017-10-10T02:29:43.665Z,94.90
2017-10-10T02:32:10.472Z,95.00
2017-10-10T02:34:37.298Z,94.90
2017-10-10T02:37:04.879Z,94.90
2017-10-10T02:39:31.709Z,94.90
2017-10-10T02:41:58.568Z,94.90
2017-10-10T02:44:25.369Z,94.80
2017-10-10T02:46:52.185Z,95.00
2017-10-10T02:49:19.059Z,94.90
2017-10-10T02:51:46.729Z,95.00
2017-10-10T02:54:13.578Z,95.00
2017-10-10T02:56:40.397Z,94.90
2017-10-10T02:59:07.205Z,94.90
2017-10-10T03:01:34.067Z,95.00
2017-10-10T03:04:00.915Z,94.90
2017-10-10T03:06:27.761Z,94.90
2017-10-10T03:08:54.626Z,95.00
2017-10-10T03:11:21.436Z,95.00
2017-10-10T03:13:48.985Z,95.10
2017-10-10T03:16:15.813Z,95.00
2017-10-10T03:18:42.636Z,95.00
2017-10-10T03:21:10.209Z,94.90
2017-10-10T03:23:37.785Z,95.00
2017-10-10T03:26:04.638Z,95.00
2017-10-10T03:28:31.444Z,95.20
2017-10-10T03:30:58.275Z,95.00
2017-10-10T03:33:25.853Z,95.00
2017-10-10T03:35:53.455Z,94.90
2017-10-10T03:38:20.331Z,94.90
2017-10-10T03:40:47.166Z,95.00
2017-10-10T03:43:13.984Z,95.00
2017-10-10T03:45:40.831Z,95.00
2017-10-10T03:48:07.633Z,95.30
2017-10-10T03:50:35.192Z,95.30
2017-10-10T03:53:02.018Z,95.10
2017-10-10T03:55:28.857Z,95.10
2017-10-10T03:57:55.685Z,95.00
2017-10-10T04:00:22.496Z,95.10
2017-10-10T04:02:49.309Z,94.80
2017-10-10T04:05:16.137Z,95.20
2017-10-10T04:07:42.906Z,95.30
2017-10-10T04:10:09.741Z,95.30
2017-10-10T04:12:36.552Z,95.10
2017-10-10T04:15:04.163Z,95.10
2017-10-10T04:17:31.012Z,95.10
2017-10-10T04:19:57.812Z,95.20
2017-10-10T04:22:24.683Z,95.10
2017-10-10T04:24:51.529Z,95.10
2017-10-10T04:27:18.367Z,95.20
2017-10-10T04:29:45.183Z,95.10
2017-10-10T04:32:11.988Z,95.20
2017-10-10T04:34:38.842Z,95.20
2017-10-10T04:37:05.664Z,95.20
2017-10-10T04:39:32.494Z,95.20
2017-10-10T04:41:59.301Z,95.30
2017-10-10T04:44:26.875Z,95.20
2017-10-10T04:46:53.807Z,95.20
2017-10-10T04:49:20.639Z,95.20
2017-10-10T04:51:47.471Z,95.40
2017-10-10T04:54:15.048Z,95.60
2017-10-10T04:56:42.615Z,95.50
2017-10-10T04:59:09.848Z,95.50
2017-10-10T05:01:36.717Z,95.40
2017-10-10T05:04:03.537Z,95.50
2017-10-10T05:06:30.329Z,95.50
2017-10-10T05:08:57.160Z,95.50
2017-10-10T05:11:24.042Z,95.50
2017-10-10T05:13:50.904Z,95.50
2017-10-10T05:16:17.744Z,95.50
2017-10-10T05:18:44.617Z,95.60
2017-10-10T05:21:11.584Z,95.50
2017-10-10T05:23:38.418Z,95.60
2017-10-10T05:26:05.265Z,95.60
2017-10-10T05:28:32.873Z,95.70
2017-10-10T05:30:59.731Z,95.70
2017-10-10T05:33:26.584Z,95.70
2017-10-10T05:35:53.387Z,95.70
2017-10-10T05:38:20.265Z,95.70
2017-10-10T05:40:47.083Z,95.80
2017-10-10T05:43:13.932Z,95.80
2017-10-10T05:45:40.771Z,95.80
2017-10-10T05:48:08.349Z,96.00
2017-10-10T05:50:35.924Z,96.00
2017-10-10T05:53:02.763Z,96.00
2017-10-10T05:55:29.622Z,95.90
2017-10-10T05:57:56.468Z,96.00
2017-10-10T06:00:23.285Z,95.90
2017-10-10T06:02:50.104Z,96.20
2017-10-10T06:05:16.955Z,96.00
2017-10-10T06:07:43.845Z,95.90
2017-10-10T06:10:10.717Z,96.30
2017-10-10T06:12:38.300Z,96.10
2017-10-10T06:15:05.899Z,96.00
2017-10-10T06:17:32.736Z,96.00
2017-10-10T06:19:59.581Z,96.10
2017-10-10T06:22:26.404Z,96.10
2017-10-10T06:24:53.218Z,96.10
2017-10-10T06:27:20.791Z,96.40
2017-10-10T06:29:47.621Z,96.20
2017-10-10T06:32:14.393Z,96.20
2017-10-10T06:34:41.234Z,96.10
2017-10-10T06:37:08.058Z,96.10
2017-10-10T06:39:34.863Z,96.20
2017-10-10T06:42:01.678Z,96.10
2017-10-10T06:44:28.564Z,96.20
2017-10-10T06:46:55.413Z,96.20
2017-10-10T06:49:22.237Z,96.30
2017-10-10T06:51:49.846Z,96.50
2017-10-10T06:54:16.673Z,96.30
2017-10-10T06:56:43.506Z,96.40
2017-10-10T06:59:10.321Z,96.30
2017-10-10T07:01:37.133Z,96.40
2017-10-10T07:04:03.966Z,96.40
2017-10-10T07:06:30.804Z,96.40
2017-10-10T07:08:57.628Z,96.40
2017-10-10T07:11:24.657Z,96.70
2017-10-10T07:13:51.471Z,96.40
2017-10-10T07:16:19.007Z,96.60
2017-10-10T07:18:45.837Z,96.60
2017-10-10T07:21:12.651Z,96.90
2017-10-10T07:23:39.510Z,96.80
2017-10-10T07:26:06.353Z,96.80
2017-10-10T07:28:33.220Z,96.80
2017-10-10T07:31:00.057Z,96.90
2017-10-10T07:33:26.892Z,96.90
2017-10-10T07:35:53.688Z,97.00
2017-10-10T07:38:20.551Z,96.90
2017-10-10T07:40:47.406Z,97.40
2017-10-10T07:43:14.219Z,97.00
2017-10-10T07:45:41.773Z,97.30
2017-10-10T07:48:08.607Z,97.30
2017-10-10T07:50:35.403Z,97.00
2017-10-10T07:53:02.259Z,97.10
2017-10-10T07:55:29.140Z,96.90
2017-10-10T07:57:56.691Z,97.30
2017-10-10T08:00:23.521Z,97.30
2017-10-10T08:02:50.331Z,96.90
2017-10-10T08:05:17.176Z,96.90
2017-10-10T08:07:44.013Z,97.00
2017-10-10T08:10:10.826Z,97.00
2017-10-10T08:12:38.383Z,97.00
2017-10-10T08:15:05.251Z,96.90
2017-10-10T08:17:32.088Z,96.90
2017-10-10T08:19:58.925Z,97.00
2017-10-10T08:22:25.758Z,96.90
2017-10-10T08:24:52.623Z,96.90
2017-10-10T08:27:19.440Z,96.90
2017-10-10T08:29:46.317Z,96.80
2017-10-10T08:32:13.988Z,96.80
2017-10-10T08:34:40.834Z,96.80
2017-10-10T08:37:07.699Z,97.00
2017-10-10T08:39:34.567Z,96.80
2017-10-10T08:42:01.400Z,97.10
2017-10-10T08:44:28.256Z,96.80
2017-10-10T08:46:55.069Z,96.70
2017-10-10T08:49:22.618Z,96.90
2017-10-10T08:51:49.432Z,96.70
2017-10-10T08:54:16.268Z,96.60
2017-10-10T08:56:43.892Z,96.80
2017-10-10T08:59:10.771Z,96.80
2017-10-10T09:01:37.627Z,96.70
2017-10-10T09:04:04.482Z,96.80
2017-10-10T09:06:31.355Z,96.50
2017-10-10T09:08:58.182Z,96.50
2017-10-10T09:11:25.028Z,96.50
2017-10-10T09:13:52.595Z,96.70
2017-10-10T09:16:20.164Z,96.40
2017-10-10T09:18:47.839Z,96.60
2017-10-10T09:21:14.683Z,96.60
2017-10-10T09:23:41.557Z,96.40
2017-10-10T09:26:08.388Z,96.00
2017-10-10T09:28:35.250Z,96.20
2017-10-10T09:31:02.094Z,96.10
2017-10-10T09:33:28.947Z,95.60
2017-10-10T09:35:55.795Z,95.80
2017-10-10T09:38:23.364Z,95.70
2017-10-10T09:40:50.908Z,95.60
2017-10-10T09:43:17.735Z,95.50
2017-10-10T09:45:44.599Z,95.70
2017-10-10T09:48:11.405Z,95.80
2017-10-10T09:50:38.217Z,95.20
2017-10-10T09:53:05.081Z,95.20
2017-10-10T09:55:31.903Z,95.50
2017-10-10T09:57:59.479Z,95.20
2017-10-10T10:00:27.045Z,95.30
2017-10-10T10:02:53.886Z,95.30
2017-10-10T10:05:20.705Z,95.10
2017-10-10T10:07:47.521Z,94.80
2017-10-10T10:10:14.315Z,94.90
2017-10-10T10:12:41.179Z,94.80
2017-10-10T10:15:08.010Z,95.20
2017-10-10T10:17:34.851Z,94.90
2017-10-10T10:20:01.683Z,94.70
2017-10-10T10:22:28.494Z,94.60
2017-10-10T10:24:55.327Z,94.50
2017-10-10T10:27:22.231Z,94.70
2017-10-10T10:29:49.802Z,94.80
2017-10-10T10:32:17.394Z,94.10
2017-10-10T10:34:44.947Z,93.60
2017-10-10T10:37:11.738Z,93.60
2017-10-10T10:39:38.553Z,93.20
2017-10-10T10:42:07.087Z,94.20
2017-10-10T10:44:34.677Z,94.10
2017-10-10T10:47:01.525Z,94.10
2017-10-10T10:49:29.073Z,93.30
2017-10-10T10:51:55.921Z,93.30
2017-10-10T10:54:22.895Z,93.50
2017-10-10T10:56:49.771Z,93.40
2017-10-10T10:59:16.653Z,93.50
2017-10-10T11:01:44.215Z,93.80
2017-10-10T11:04:11.073Z,93.70
2017-10-10T11:06:37.890Z,93.80
2017-10-10T11:09:04.754Z,93.60
2017-10-10T11:11:31.559Z,93.50
2017-10-10T11:13:58.384Z,93.30
2017-10-10T11:16:25.227Z,93.60
2017-10-10T11:18:52.056Z,93.40
2017-10-10T11:21:19.637Z,93.00
2017-10-10T11:23:47.217Z,92.60
2017-10-10T11:26:14.787Z,93.00
2017-10-10T11:28:42.333Z,93.10
2017-10-10T11:31:09.178Z,93.10
2017-10-10T11:33:35.988Z,93.00
2017-10-10T11:36:03.601Z,92.80
2017-10-10T11:38:30.475Z,92.80
2017-10-10T11:40:57.301Z,93.10
2017-10-10T11:43:24.098Z,92.70
2017-10-10T11:45:50.904Z,92.90
2017-10-10T11:48:18.434Z,92.10
2017-10-10T11:50:45.270Z,92.10
2017-10-10T11:53:12.072Z,92.80
2017-10-10T11:55:38.882Z,92.90
2017-10-10T11:58:05.718Z,92.60
2017-10-10T12:00:32.602Z,92.70
2017-10-10T12:02:59.451Z,91.90
2017-10-10T12:05:27.016Z,92.40
2017-10-10T12:07:54.592Z,91.80
2017-10-10T12:10:21.457Z,91.80
2017-10-10T12:12:48.271Z,92.70
2017-10-10T12:15:15.095Z,92.10
2017-10-10T12:17:42.632Z,92.30
2017-10-10T12:20:09.459Z,92.30
2017-10-10T12:22:36.267Z,92.40
2017-10-10T12:25:03.094Z,92.10
2017-10-10T12:27:30.358Z,92.50
2017-10-10T12:29:57.245Z,92.30
2017-10-10T12:32:24.028Z,92.00
2017-10-10T12:34:50.838Z,92.00
2017-10-10T12:37:17.649Z,92.10
2017-10-10T12:39:45.229Z,92.10
2017-10-10T12:42:12.057Z,92.10
2017-10-10T12:44:39.083Z,92.40
2017-10-10T12:47:06.659Z,92.10
2017-10-10T12:49:37.916Z,92.20
2017-10-10T13:05:04.955Z,92.40
2017-10-10T13:07:31.850Z,92.50
2017-10-10T13:09:58.694Z,92.30
2017-10-10T13:12:25.536Z,92.30
2017-10-10T13:14:52.365Z,92.30
2017-10-10T13:17:19.984Z,92.30
2017-10-10T13:19:46.811Z,92.30
2017-10-10T13:22:14.432Z,92.00
2017-10-10T13:24:41.327Z,92.00
2017-10-10T13:27:08.953Z,91.70
2017-10-10T13:29:35.888Z,92.20
2017-10-10T13:32:03.783Z,92.10
2017-10-10T13:34:30.653Z,92.10
2017-10-10T13:36:57.677Z,92.10
2017-10-10T13:39:24.601Z,91.80
2017-10-10T13:41:51.481Z,92.00
2017-10-10T13:44:18.649Z,92.00
2017-10-10T13:46:45.517Z,91.70
2017-10-10T13:49:12.394Z,91.80
2017-10-10T13:51:39.311Z,91.80
2017-10-10T13:54:06.162Z,91.80
2017-10-10T13:56:33.056Z,91.90
2017-10-10T13:58:59.904Z,91.70
2017-10-10T14:01:26.724Z,91.80
2017-10-10T14:03:54.328Z,91.90
2017-10-10T14:06:21.168Z,91.80
2017-10-10T14:08:48.063Z,91.80
2017-10-10T14:11:14.884Z,91.60
2017-10-10T14:13:41.724Z,91.60
2017-10-10T14:16:08.605Z,91.90
2017-10-10T14:18:35.460Z,92.10
2017-10-10T14:21:02.288Z,92.20
2017-10-10T14:23:29.132Z,92.20
2017-10-10T14:25:55.994Z,92.30
2017-10-10T14:28:22.833Z,92.40
2017-10-10T14:30:49.695Z,92.20
2017-10-10T14:33:16.536Z,92.30
2017-10-10T14:35:44.166Z,92.20
2017-10-10T14:38:11.017Z,92.20
2017-10-10T14:40:38.069Z,92.10
2017-10-10T14:43:04.927Z,92.20
2017-10-10T14:45:31.796Z,92.70
2017-10-10T14:47:58.669Z,92.90
2017-10-10T14:50:25.547Z,93.20
2017-10-10T14:52:52.386Z,93.30
2017-10-10T14:55:19.216Z,93.40
2017-10-10T14:57:46.785Z,93.40
2017-10-10T15:00:14.360Z,93.40
2017-10-10T15:02:41.236Z,93.70
2017-10-10T15:05:08.887Z,93.80
2017-10-10T15:07:35.749Z,93.80
2017-10-10T15:10:02.607Z,94.10
2017-10-10T15:12:29.447Z,94.00
2017-10-10T15:14:56.302Z,94.20
2017-10-10T15:17:23.093Z,94.30
2017-10-10T15:19:49.900Z,94.60
2017-10-10T15:22:16.712Z,94.40
2017-10-10T15:24:43.555Z,94.50
2017-10-10T15:27:10.358Z,94.50
2017-10-10T15:29:37.256Z,94.80
2017-10-10T15:32:04.159Z,94.70
2017-10-10T15:34:31.039Z,94.50
2017-10-10T15:36:57.856Z,94.60
2017-10-10T15:39:25.570Z,94.50
2017-10-10T15:41:52.408Z,94.50
2017-10-10T15:44:19.293Z,94.90
2017-10-10T15:46:46.093Z,94.80
2017-10-10T15:49:12.908Z,94.80
2017-10-10T15:51:40.677Z,94.70
2017-10-10T15:54:08.381Z,94.90
2017-10-10T15:56:35.145Z,94.90
2017-10-10T15:59:01.952Z,95.00
2017-10-10T16:01:28.757Z,94.70
2017-10-10T16:03:55.601Z,94.90
2017-10-10T16:06:23.381Z,94.70
2017-10-10T16:08:50.982Z,95.00
2017-10-10T16:11:17.815Z,95.00
2017-10-10T16:13:44.660Z,94.90
2017-10-10T16:16:11.470Z,94.80
2017-10-10T16:18:38.264Z,94.80
2017-10-10T16:21:05.093Z,94.70
2017-10-10T16:23:31.929Z,94.80
2017-10-10T16:25:58.755Z,94.80
2017-10-10T16:28:25.660Z,94.80
2017-10-10T16:30:52.543Z,94.80
2017-10-10T16:33:20.689Z,94.90
2017-10-10T16:35:47.576Z,94.90
2017-10-10T16:38:14.673Z,94.90
2017-10-10T16:40:42.334Z,94.90
2017-10-10T16:43:09.241Z,94.90
2017-10-10T16:45:36.097Z,94.90
2017-10-10T16:48:02.946Z,94.80
2017-10-10T16:50:29.899Z,94.80
2017-10-10T16:52:57.440Z,94.80
2017-10-10T16:55:24.257Z,94.80
2017-10-10T16:57:51.091Z,94.80
2017-10-10T17:00:18.632Z,94.70
2017-10-10T17:02:45.455Z,94.70
2017-10-10T17:05:12.274Z,94.80
2017-10-10T17:07:39.099Z,94.80
2017-10-10T17:10:06.433Z,94.80
2017-10-10T17:12:33.273Z,94.90
2017-10-10T17:15:00.088Z,94.90
2017-10-10T17:17:27.454Z,94.90
2017-10-10T17:19:54.338Z,94.90
2017-10-10T17:22:21.166Z,94.90
2017-10-10T17:24:48.002Z,94.90
2017-10-10T17:27:14.838Z,94.90
2017-10-10T17:29:41.663Z,95.00
2017-10-10T17:32:08.560Z,94.90
2017-10-10T17:34:35.424Z,94.90
2017-10-10T17:37:02.359Z,95.10
2017-10-10T17:39:29.206Z,95.30
2017-10-10T17:41:56.281Z,94.90
2017-10-10T17:44:23.210Z,95.00
2017-10-10T17:46:50.817Z,95.00
2017-10-10T17:49:17.761Z,95.00
2017-10-10T17:51:44.655Z,95.20
2017-10-10T17:54:12.001Z,95.20
2017-10-10T17:56:39.487Z,95.40
2017-10-10T17:59:06.489Z,95.10
2017-10-10T18:01:33.408Z,95.10
2017-10-10T18:04:00.312Z,95.00
2017-10-10T18:06:27.435Z,95.10
2017-10-10T18:08:55.127Z,95.10
2017-10-10T18:11:22.631Z,95.10
2017-10-10T18:13:50.538Z,95.00
2017-10-10T18:16:18.427Z,95.10
2017-10-10T18:18:47.195Z,95.10
2017-10-10T18:21:16.182Z,95.20
2017-10-10T18:23:44.252Z,95.30
2017-10-10T18:26:12.320Z,95.30
2017-10-10T18:28:41.147Z,95.30
2017-10-10T18:31:09.967Z,95.30
2017-10-10T18:33:39.111Z,95.30
2017-10-10T18:36:08.221Z,95.20
2017-10-10T18:38:37.765Z,95.30
2017-10-10T18:41:06.799Z,95.30
2017-10-10T18:43:35.838Z,95.20
2017-10-10T18:46:05.552Z,95.40
2017-10-10T18:48:34.235Z,95.40
2017-10-10T18:51:03.019Z,95.40
2017-10-10T18:53:31.821Z,95.30
2017-10-10T18:56:00.651Z,95.40
2017-10-10T18:58:29.648Z,95.30
2017-10-10T19:00:58.472Z,95.50
2017-10-10T19:03:27.237Z,95.40
2017-10-10T19:05:56.992Z,95.70
2017-10-10T19:08:25.801Z,95.40
2017-10-10T19:10:54.757Z,95.30
2017-10-10T19:13:24.435Z,95.30
2017-10-10T19:15:52.888Z,95.30
2017-10-10T19:18:21.788Z,95.30
2017-10-10T19:20:50.565Z,95.30
2017-10-10T19:23:18.575Z,95.30
2017-10-10T19:25:47.095Z,95.30
2017-10-10T19:28:15.817Z,95.40
2017-10-10T19:30:44.633Z,95.30
2017-10-10T19:33:14.345Z,95.30
2017-10-10T19:35:43.153Z,95.20
2017-10-10T19:38:11.537Z,95.10
2017-10-10T19:40:40.085Z,95.10
2017-10-10T19:43:08.947Z,95.10
2017-10-10T19:45:37.629Z,95.10
2017-10-10T19:48:06.189Z,95.20
2017-10-10T19:50:39.859Z,95.20
2017-10-10T19:53:07.748Z,95.10
2017-10-10T19:55:34.724Z,95.20
2017-10-10T19:58:02.157Z,95.20
2017-10-10T20:00:37.435Z,95.50
2017-10-10T20:03:09.862Z,95.20
2017-10-10T20:05:38.081Z,95.20
2017-10-10T20:08:09.673Z,95.20
2017-10-10T20:10:36.959Z,95.20
2017-10-10T20:13:04.178Z,95.20
2017-10-10T20:15:31.727Z,95.20
2017-10-10T20:17:58.610Z,95.40
2017-10-10T20:20:30.950Z,95.30
2017-10-10T20:22:58.240Z,95.20
2017-10-10T20:25:25.281Z,95.20
2017-10-10T20:27:53.161Z,95.20
2017-10-10T20:30:20.442Z,95.20
2017-10-10T20:32:54.320Z,95.20
2017-10-10T20:35:22.884Z,95.20
2017-10-10T20:37:55.500Z,95.30
2017-10-10T20:40:22.655Z,95.10
2017-10-10T20:42:50.023Z,95.10
2017-10-10T20:45:22.522Z,95.10
2017-10-10T20:47:49.872Z,95.20
2017-10-10T20:50:17.412Z,95.10
2017-10-10T20:52:44.678Z,95.10
2017-10-10T20:55:11.865Z,95.20
2017-10-10T20:57:39.222Z,95.30
2017-10-10T21:00:12.016Z,95.20
2017-10-10T21:02:44.136Z,95.20
2017-10-10T21:05:11.062Z,95.10
2017-10-10T21:07:39.373Z,95.10
2017-10-10T21:10:07.140Z,95.10
2017-10-10T21:12:34.642Z,95.10
2017-10-10T21:15:01.686Z,95.10
2017-10-10T21:17:31.087Z,95.10
2017-10-10T21:19:58.505Z,95.10
2017-10-10T21:22:29.706Z,95.10
2017-10-10T21:24:57.632Z,95.00
2017-10-10T21:27:26.430Z,95.00
2017-10-10T21:29:59.444Z,95.00
2017-10-10T21:32:27.084Z,95.10
2017-10-10T21:34:57.294Z,95.10
2017-10-10T21:37:29.408Z,95.00
2017-10-10T21:40:01.467Z,95.00
2017-10-10T21:42:31.548Z,95.00
2017-10-10T21:44:58.876Z,94.90
2017-10-10T21:47:26.214Z,95.20
2017-10-10T21:49:58.303Z,94.90
2017-10-10T21:52:25.248Z,94.80
2017-10-10T21:54:56.095Z,94.90
2017-10-10T21:57:24.097Z,94.90
2017-10-10T21:59:56.460Z,94.90
2017-10-10T22:02:26.359Z,94.90
2017-10-10T22:04:54.312Z,94.90
2017-10-10T22:07:21.942Z,94.90
2017-10-10T22:09:49.172Z,94.80
2017-10-10T22:12:16.068Z,94.80
2017-10-10T22:14:43.438Z,94.80
2017-10-10T22:17:10.660Z,94.80
2017-10-10T22:19:42.748Z,94.80
2017-10-10T22:22:10.691Z,94.80
2017-10-10T22:24:37.557Z,94.80
2017-10-10T22:27:10.839Z,94.80
2017-10-10T22:29:41.509Z,94.80
2017-10-10T22:32:08.390Z,94.70
2017-10-10T22:34:35.547Z,94.70
2017-10-10T22:37:07.659Z,94.70
2017-10-10T22:39:36.236Z,94.70
2017-10-10T22:42:08.423Z,94.70
2017-10-10T22:44:39.165Z,94.60
2017-10-10T22:47:06.827Z,94.60
2017-10-10T22:49:33.758Z,94.60
2017-10-10T22:52:05.927Z,94.60
2017-10-10T22:54:38.083Z,94.50
2017-10-10T22:57:06.923Z,94.50
2017-10-10T22:59:34.190Z,94.50
2017-10-10T23:02:01.522Z,94.40
2017-10-10T23:04:34.633Z,94.50
2017-10-10T23:07:01.689Z,94.40
2017-10-10T23:09:28.670Z,94.40
2017-10-10T23:12:01.336Z,94.40
2017-10-10T23:14:28.172Z,94.40
2017-10-10T23:16:55.042Z,94.40
2017-10-10T23:19:21.876Z,94.40
2017-10-10T23:21:48.751Z,94.40
2017-10-10T23:24:15.617Z,94.30
2017-10-10T23:26:42.427Z,94.30
2017-10-10T23:29:09.316Z,94.30
2017-10-10T23:31:36.868Z,94.30
2017-10-10T23:34:03.712Z,94.30
2017-10-10T23:36:30.546Z,94.40
2017-10-10T23:38:57.380Z,94.40
2017-10-10T23:41:24.224Z,94.40
2017-10-10T23:43:51.809Z,94.30
2017-10-10T23:46:19.366Z,94.40
2017-10-10T23:48:46.211Z,94.40
2017-10-10T23:51:13.045Z,94.40
2017-10-10T23:53:39.860Z,94.40
2017-10-10T23:56:06.730Z,94.30
2017-10-10T23:58:34.300Z,94.30
